createdAt,value
2022-11-09T00:01:50.024Z,31.38
2022-11-09T00:06:53.602Z,30.90
2022-11-09T00:11:56.640Z,37.38
2022-11-09T00:16:59.774Z,31.57
2022-11-09T00:22:02.455Z,33.08
2022-11-09T00:27:05.166Z,33.40
2022-11-09T00:32:08.015Z,34.87
2022-11-09T00:37:12.133Z,36.13
2022-11-09T00:42:14.810Z,29.87
2022-11-09T00:47:17.606Z,35.25
2022-11-09T00:52:20.809Z,29.58
2022-11-09T00:57:23.569Z,29.03
2022-11-09T01:02:26.231Z,26.35
2022-11-09T01:07:28.787Z,41.83
2022-11-09T01:12:31.972Z,26.98
2022-11-09T01:17:34.944Z,27.35
2022-11-09T01:22:37.571Z,32.87
2022-11-09T01:27:40.277Z,34.20
2022-11-09T01:32:43.221Z,27.50
2022-11-09T01:37:46.066Z,32.83
2022-11-09T01:42:48.666Z,36.58
2022-11-09T01:48:01.695Z,30.83
2022-11-09T01:53:07.720Z,29.73
2022-11-09T01:58:16.332Z,27.13
2022-11-09T02:03:37.626Z,32.53
2022-11-09T02:08:40.929Z,36.67
2022-11-09T02:13:51.858Z,29.03
2022-11-09T02:18:57.494Z,33.50
2022-11-09T02:24:01.596Z,29.20
2022-11-09T02:29:07.534Z,29.98
2022-11-09T02:34:14.383Z,32.13
2022-11-09T02:39:19.873Z,36.13
2022-11-09T02:44:23.994Z,38.63
2022-11-09T02:49:26.874Z,38.97
2022-11-09T02:54:30.355Z,39.15
2022-11-09T02:59:34.157Z,38.35
2022-11-09T03:04:39.015Z,76.73
2022-11-09T03:09:42.325Z,55.60
2022-11-09T03:14:45.724Z,34.87
2022-11-09T03:19:49.144Z,35.42
2022-11-09T03:24:52.777Z,41.60
2022-11-09T03:29:56.028Z,31.90
2022-11-09T03:34:59.149Z,32.38
2022-11-09T03:40:01.844Z,33.20
2022-11-09T03:45:05.314Z,29.15
2022-11-09T03:50:08.855Z,24.20
2022-11-09T03:55:11.755Z,23.60
2022-11-09T04:00:17.730Z,27.98
2022-11-09T04:05:20.564Z,35.70
2022-11-09T04:10:24.364Z,40.60
2022-11-09T04:15:27.059Z,26.55
2022-11-09T04:20:31.501Z,25.30
2022-11-09T04:25:36.275Z,25.38
2022-11-09T04:30:39.439Z,30.00
2022-11-09T04:35:42.186Z,33.00
2022-11-09T04:40:44.865Z,36.13
2022-11-09T04:45:47.705Z,31.50
2022-11-09T04:50:50.355Z,20.52
2022-11-09T04:55:52.959Z,29.37
2022-11-09T05:00:56.163Z,29.98
2022-11-09T05:05:59.186Z,36.22
2022-11-09T05:11:01.844Z,38.53
2022-11-09T05:16:04.777Z,36.95
2022-11-09T05:21:07.775Z,30.10
2022-11-09T05:26:10.774Z,30.70
2022-11-09T05:31:13.726Z,34.55
2022-11-09T05:36:16.480Z,29.50
2022-11-09T05:41:19.205Z,32.58
2022-11-09T05:46:22.096Z,30.30
2022-11-09T05:51:24.735Z,33.05
2022-11-09T05:56:27.455Z,26.88
2022-11-09T06:01:30.488Z,29.43
2022-11-09T06:06:33.331Z,31.15
2022-11-09T06:11:36.045Z,24.30
2022-11-09T06:16:38.737Z,29.20
2022-11-09T06:21:41.479Z,34.53
2022-11-09T06:26:44.446Z,26.50
2022-11-09T06:31:49.136Z,31.30
2022-11-09T06:36:51.961Z,26.57
2022-11-09T06:41:54.677Z,27.67
2022-11-09T06:46:57.429Z,32.97
2022-11-09T06:52:00.136Z,27.00
2022-11-09T06:57:02.886Z,37.83
2022-11-09T07:02:05.626Z,35.97
2022-11-09T07:07:08.765Z,44.42
2022-11-09T07:12:11.506Z,36.00
2022-11-09T07:17:14.237Z,34.70
2022-11-09T07:22:17.286Z,32.83
2022-11-09T07:27:24.861Z,35.77
2022-11-09T07:32:54.193Z,40.00
2022-11-09T07:37:53.104Z,37.42
2022-11-09T07:42:59.627Z,40.50
2022-11-09T07:48:07.180Z,43.47
2022-11-09T07:53:14.656Z,43.27
2022-11-09T07:58:17.423Z,46.03
2022-11-09T08:03:22.322Z,43.78
2022-11-09T08:08:25.575Z,41.27
2022-11-09T08:13:28.342Z,32.40
2022-11-09T08:18:31.204Z,34.90
2022-11-09T08:23:34.522Z,39.25
2022-11-09T08:28:37.601Z,43.13
2022-11-09T08:33:42.139Z,43.77
2022-11-09T08:38:46.133Z,41.03
2022-11-09T08:43:48.965Z,42.27
2022-11-09T08:48:51.662Z,42.53
2022-11-09T08:53:54.442Z,42.78
2022-11-09T08:58:57.173Z,44.33
2022-11-09T09:03:59.963Z,40.45
2022-11-09T09:09:03.043Z,45.83
2022-11-09T09:14:06.121Z,43.63
2022-11-09T09:19:08.912Z,36.67
2022-11-09T09:24:11.734Z,31.93
2022-11-09T09:29:14.953Z,31.30
2022-11-09T09:34:17.858Z,30.80
2022-11-09T09:39:20.673Z,30.95
2022-11-09T09:44:57.222Z,30.25
2022-11-09T09:50:13.564Z,29.23
2022-11-09T09:55:36.194Z,29.13
2022-11-09T10:00:40.293Z,25.30
2022-11-09T10:06:15.883Z,23.90
2022-11-09T10:11:37.328Z,21.40
2022-11-09T10:16:48.213Z,22.53
2022-11-09T10:21:57.846Z,22.95
2022-11-09T10:27:01.895Z,21.57
2022-11-09T10:32:24.824Z,17.58
2022-11-09T10:37:43.533Z,23.45
2022-11-09T10:43:01.553Z,21.00
2022-11-09T10:48:34.446Z,23.98
2022-11-09T10:54:15.603Z,31.13
2022-11-09T10:59:45.248Z,29.65
2022-11-09T11:05:08.325Z,31.02
2022-11-09T11:10:29.783Z,28.10
2022-11-09T11:15:51.855Z,27.23
2022-11-09T11:21:19.651Z,27.23
2022-11-09T11:26:45.945Z,31.00
2022-11-09T11:32:13.602Z,27.65
2022-11-09T11:38:13.556Z,22.93
2022-11-09T11:44:01.285Z,22.13
2022-11-09T11:49:34.542Z,17.07
2022-11-09T11:55:07.615Z,17.40
2022-11-09T12:00:32.464Z,18.35
2022-11-09T12:06:11.831Z,17.67
2022-11-09T12:11:59.766Z,17.50
2022-11-09T12:17:45.024Z,18.67
2022-11-09T12:23:47.534Z,14.38
2022-11-09T12:29:23.805Z,13.60
2022-11-09T12:35:10.239Z,14.30
2022-11-09T12:40:39.797Z,15.55
2022-11-09T12:46:04.652Z,15.73
2022-11-09T12:51:26.579Z,12.68
2022-11-09T12:57:13.153Z,12.75
2022-11-09T13:02:55.443Z,14.60
2022-11-09T13:08:21.146Z,13.07
2022-11-09T13:13:42.374Z,14.63
2022-11-09T13:19:04.240Z,13.93
2022-11-09T13:24:31.384Z,13.15
2022-11-09T13:29:56.599Z,13.43
2022-11-09T13:35:48.066Z,14.82
2022-11-09T13:41:37.596Z,15.40
2022-11-09T13:47:00.116Z,13.68
2022-11-09T13:52:52.196Z,12.93
2022-11-09T13:58:37.723Z,16.37
2022-11-09T14:04:00.497Z,13.27
2022-11-09T14:09:22.209Z,13.77
2022-11-09T14:15:01.933Z,14.50
2022-11-09T14:20:51.087Z,15.02
2022-11-09T14:26:22.386Z,15.23
2022-11-09T14:31:46.217Z,14.20
2022-11-09T14:37:07.776Z,15.13
2022-11-09T14:42:29.478Z,13.27
2022-11-09T14:47:54.997Z,12.73
2022-11-09T14:53:30.093Z,13.73
2022-11-09T14:58:52.574Z,14.25
2022-11-09T15:04:22.093Z,14.80
2022-11-09T15:09:48.465Z,14.75
2022-11-09T15:15:21.062Z,14.73
2022-11-09T15:20:42.185Z,21.90
2022-11-09T15:26:03.209Z,20.48
2022-11-09T15:31:27.517Z,18.53
2022-11-09T15:36:55.258Z,17.13
2022-11-09T15:42:17.307Z,15.27
2022-11-09T15:47:38.906Z,19.97
2022-11-09T15:53:00.041Z,19.08
2022-11-09T15:58:21.653Z,24.90
2022-11-09T16:03:43.478Z,26.27
2022-11-09T16:09:04.674Z,22.38
2022-11-09T16:14:26.225Z,20.67
2022-11-09T16:19:47.407Z,20.42
2022-11-09T16:25:09.636Z,29.73
2022-11-09T16:30:31.795Z,38.10
2022-11-09T16:35:55.077Z,30.65
2022-11-09T16:41:17.183Z,26.77
2022-11-09T16:46:41.077Z,27.45
2022-11-09T16:52:02.886Z,36.40
2022-11-09T16:57:24.387Z,36.92
2022-11-09T17:02:45.886Z,33.05
2022-11-09T17:08:07.775Z,29.33
2022-11-09T17:13:29.056Z,28.95
2022-11-09T17:18:52.247Z,23.57
2022-11-09T17:24:13.385Z,23.60
2022-11-09T17:29:34.470Z,30.65
2022-11-09T17:34:55.694Z,26.23
2022-11-09T17:40:20.027Z,27.20
2022-11-09T17:45:41.034Z,24.93
2022-11-09T17:51:02.604Z,24.75
2022-11-09T17:56:24.108Z,25.13
2022-11-09T18:01:45.296Z,25.03
2022-11-09T18:07:06.587Z,32.35
2022-11-09T18:12:27.820Z,33.47
2022-11-09T18:17:48.989Z,33.08
2022-11-09T18:23:10.524Z,31.90
2022-11-09T18:28:31.620Z,30.90
2022-11-09T18:33:53.591Z,35.15
2022-11-09T18:39:16.726Z,37.13
2022-11-09T18:44:39.035Z,40.05
2022-11-09T18:50:03.491Z,35.20
2022-11-09T18:55:25.706Z,37.93
2022-11-09T19:00:59.783Z,43.47
2022-11-09T19:06:24.645Z,45.97
2022-11-09T19:11:45.744Z,51.15
2022-11-09T19:17:12.246Z,36.53
2022-11-09T19:22:37.326Z,47.70
2022-11-09T19:27:58.455Z,46.30
2022-11-09T19:33:19.926Z,43.70
2022-11-09T19:38:41.206Z,42.47
2022-11-09T19:44:02.263Z,45.53
2022-11-09T19:49:23.806Z,45.13
2022-11-09T19:54:45.167Z,43.03
2022-11-09T20:00:07.657Z,41.60
2022-11-09T20:05:32.036Z,35.13
2022-11-09T20:10:54.397Z,44.83
2022-11-09T20:16:15.734Z,41.60
2022-11-09T20:21:37.884Z,43.67
2022-11-09T20:26:59.190Z,45.97
2022-11-09T20:32:21.769Z,41.38
2022-11-09T20:37:43.381Z,39.53
2022-11-09T20:43:05.025Z,37.97
2022-11-09T20:48:52.026Z,34.58
2022-11-09T20:54:07.945Z,32.87
2022-11-09T20:59:29.564Z,55.42
2022-11-09T21:04:50.983Z,39.30
2022-11-09T21:10:12.179Z,37.07
2022-11-09T21:15:33.479Z,44.75
2022-11-09T21:20:54.977Z,45.57
2022-11-09T21:26:34.583Z,40.30
2022-11-09T21:31:55.765Z,46.78
2022-11-09T21:37:17.159Z,46.87
2022-11-09T21:42:38.464Z,46.92
2022-11-09T21:47:59.485Z,104.57
2022-11-09T21:53:20.958Z,36.78
2022-11-09T21:58:43.274Z,32.80
2022-11-09T22:04:04.726Z,36.20
2022-11-09T22:09:29.652Z,43.33
2022-11-09T22:15:15.521Z,36.97
2022-11-09T22:21:05.876Z,45.78
2022-11-09T22:26:28.473Z,60.35
2022-11-09T22:31:49.456Z,91.40
2022-11-09T22:37:10.501Z,66.93
2022-11-09T22:42:31.554Z,64.83
2022-11-09T22:47:52.872Z,72.72
2022-11-09T22:53:14.826Z,61.67
2022-11-09T22:58:36.303Z,89.13
2022-11-09T23:03:57.383Z,59.67
2022-11-09T23:09:18.893Z,71.53
2022-11-09T23:14:58.725Z,62.28
2022-11-09T23:20:21.024Z,58.92
2022-11-09T23:25:54.303Z,49.53
2022-11-09T23:31:19.715Z,54.70
2022-11-09T23:36:40.718Z,55.37
2022-11-09T23:42:02.089Z,52.72
2022-11-09T23:47:23.165Z,59.85
2022-11-09T23:52:44.219Z,47.50
2022-11-09T23:58:07.562Z,47.42
